sensor_id;sensor_type;location;lat;lon;timestamp;P1;durP1;ratioP1;P2;durP2;ratioP2
40339;SDS011;26044;50.864;20.658;2023-04-06T00:01:03;35.25;;;14.20;;
40339;SDS011;26044;50.864;20.658;2023-04-06T00:03:30;32.03;;;12.77;;
40339;SDS011;26044;50.864;20.658;2023-04-06T00:05:57;33.53;;;13.48;;
40339;SDS011;26044;50.864;20.658;2023-04-06T00:08:25;33.42;;;13.20;;
40339;SDS011;26044;50.864;20.658;2023-04-06T00:10:52;32.72;;;13.25;;
40339;SDS011;26044;50.864;20.658;2023-04-06T00:13:18;30.63;;;11.50;;
40339;SDS011;26044;50.864;20.658;2023-04-06T00:15:45;27.05;;;10.85;;
40339;SDS011;26044;50.864;20.658;2023-04-06T00:18:12;33.40;;;11.65;;
40339;SDS011;26044;50.864;20.658;2023-04-06T00:20:39;26.90;;;10.75;;
40339;SDS011;26044;50.864;20.658;2023-04-06T00:23:06;26.70;;;10.45;;
40339;SDS011;26044;50.864;20.658;2023-04-06T00:25:33;28.50;;;10.05;;
40339;SDS011;26044;50.864;20.658;2023-04-06T00:28:00;27.75;;;10.93;;
40339;SDS011;26044;50.864;20.658;2023-04-06T00:30:26;28.75;;;10.00;;
40339;SDS011;26044;50.864;20.658;2023-04-06T00:32:53;32.42;;;11.95;;
40339;SDS011;26044;50.864;20.658;2023-04-06T00:35:20;29.73;;;11.65;;
40339;SDS011;26044;50.864;20.658;2023-04-06T00:37:49;32.33;;;11.50;;
40339;SDS011;26044;50.864;20.658;2023-04-06T00:40:16;31.63;;;12.50;;
40339;SDS011;26044;50.864;20.658;2023-04-06T00:42:43;32.72;;;12.75;;
40339;SDS011;26044;50.864;20.658;2023-04-06T00:45:10;32.13;;;13.18;;
40339;SDS011;26044;50.864;20.658;2023-04-06T00:47:37;36.47;;;12.38;;
40339;SDS011;26044;50.864;20.658;2023-04-06T00:50:04;29.85;;;11.80;;
40339;SDS011;26044;50.864;20.658;2023-04-06T00:52:31;35.08;;;12.35;;
40339;SDS011;26044;50.864;20.658;2023-04-06T00:55:00;29.90;;;12.30;;
40339;SDS011;26044;50.864;20.658;2023-04-06T00:57:26;31.13;;;13.48;;
40339;SDS011;26044;50.864;20.658;2023-04-06T00:59:53;35.25;;;12.60;;
40339;SDS011;26044;50.864;20.658;2023-04-06T01:02:20;33.22;;;12.00;;
40339;SDS011;26044;50.864;20.658;2023-04-06T01:04:47;27.13;;;11.68;;
40339;SDS011;26044;50.864;20.658;2023-04-06T01:07:14;34.80;;;13.45;;
40339;SDS011;26044;50.864;20.658;2023-04-06T01:09:41;30.17;;;12.00;;
40339;SDS011;26044;50.864;20.658;2023-04-06T01:12:08;31.10;;;13.15;;
40339;SDS011;26044;50.864;20.658;2023-04-06T01:14:35;27.02;;;11.13;;
40339;SDS011;26044;50.864;20.658;2023-04-06T01:17:02;25.33;;;10.38;;
40339;SDS011;26044;50.864;20.658;2023-04-06T01:19:29;31.23;;;11.68;;
40339;SDS011;26044;50.864;20.658;2023-04-06T01:21:56;28.95;;;10.73;;
40339;SDS011;26044;50.864;20.658;2023-04-06T01:24:23;25.25;;;10.25;;
40339;SDS011;26044;50.864;20.658;2023-04-06T01:26:50;30.63;;;11.48;;
40339;SDS011;26044;50.864;20.658;2023-04-06T01:29:17;24.90;;;10.45;;
40339;SDS011;26044;50.864;20.658;2023-04-06T01:31:44;28.38;;;11.13;;
40339;SDS011;26044;50.864;20.658;2023-04-06T01:34:11;28.25;;;12.02;;
40339;SDS011;26044;50.864;20.658;2023-04-06T01:36:38;25.70;;;10.50;;
40339;SDS011;26044;50.864;20.658;2023-04-06T01:39:05;26.48;;;10.98;;
40339;SDS011;26044;50.864;20.658;2023-04-06T01:41:32;27.65;;;10.88;;
40339;SDS011;26044;50.864;20.658;2023-04-06T01:43:59;24.88;;;9.23;;
40339;SDS011;26044;50.864;20.658;2023-04-06T01:46:26;26.42;;;10.55;;
40339;SDS011;26044;50.864;20.658;2023-04-06T01:48:53;23.40;;;9.45;;
40339;SDS011;26044;50.864;20.658;2023-04-06T01:51:20;31.08;;;11.90;;
40339;SDS011;26044;50.864;20.658;2023-04-06T01:53:47;29.42;;;12.70;;
40339;SDS011;26044;50.864;20.658;2023-04-06T01:56:15;32.17;;;12.85;;
40339;SDS011;26044;50.864;20.658;2023-04-06T01:58:42;37.83;;;14.93;;
40339;SDS011;26044;50.864;20.658;2023-04-06T02:01:09;41.67;;;14.20;;
40339;SDS011;26044;50.864;20.658;2023-04-06T02:03:36;38.05;;;13.00;;
40339;SDS011;26044;50.864;20.658;2023-04-06T02:06:03;36.50;;;13.07;;
40339;SDS011;26044;50.864;20.658;2023-04-06T02:08:30;35.15;;;12.05;;
40339;SDS011;26044;50.864;20.658;2023-04-06T02:10:57;34.08;;;11.48;;
40339;SDS011;26044;50.864;20.658;2023-04-06T02:13:24;28.48;;;12.27;;
40339;SDS011;26044;50.864;20.658;2023-04-06T02:15:51;32.95;;;11.27;;
40339;SDS011;26044;50.864;20.658;2023-04-06T02:18:18;38.05;;;12.73;;
40339;SDS011;26044;50.864;20.658;2023-04-06T02:20:45;33.70;;;12.35;;
40339;SDS011;26044;50.864;20.658;2023-04-06T02:23:11;30.63;;;11.85;;
40339;SDS011;26044;50.864;20.658;2023-04-06T02:25:39;40.35;;;13.65;;
40339;SDS011;26044;50.864;20.658;2023-04-06T02:28:06;40.70;;;15.00;;
40339;SDS011;26044;50.864;20.658;2023-04-06T02:30:33;34.25;;;12.25;;
40339;SDS011;26044;50.864;20.658;2023-04-06T02:33:01;34.53;;;12.85;;
40339;SDS011;26044;50.864;20.658;2023-04-06T02:35:29;38.88;;;13.73;;
40339;SDS011;26044;50.864;20.658;2023-04-06T02:37:56;36.17;;;11.82;;
40339;SDS011;26044;50.864;20.658;2023-04-06T02:40:23;34.65;;;11.02;;
40339;SDS011;26044;50.864;20.658;2023-04-06T02:42:52;31.50;;;12.18;;
40339;SDS011;26044;50.864;20.658;2023-04-06T02:45:19;30.30;;;12.07;;
40339;SDS011;26044;50.864;20.658;2023-04-06T02:47:46;31.73;;;11.07;;
40339;SDS011;26044;50.864;20.658;2023-04-06T02:50:13;28.63;;;10.63;;
40339;SDS011;26044;50.864;20.658;2023-04-06T02:52:41;29.55;;;10.05;;
40339;SDS011;26044;50.864;20.658;2023-04-06T02:55:08;22.30;;;8.68;;
40339;SDS011;26044;50.864;20.658;2023-04-06T02:57:35;26.52;;;8.75;;
40339;SDS011;26044;50.864;20.658;2023-04-06T03:00:02;30.23;;;9.20;;
40339;SDS011;26044;50.864;20.658;2023-04-06T03:02:29;25.58;;;9.10;;
40339;SDS011;26044;50.864;20.658;2023-04-06T03:04:56;26.27;;;9.20;;
40339;SDS011;26044;50.864;20.658;2023-04-06T03:07:23;25.63;;;8.52;;
40339;SDS011;26044;50.864;20.658;2023-04-06T03:09:50;27.40;;;10.38;;
40339;SDS011;26044;50.864;20.658;2023-04-06T03:12:17;25.95;;;9.35;;
40339;SDS011;26044;50.864;20.658;2023-04-06T03:14:44;30.23;;;10.80;;
40339;SDS011;26044;50.864;20.658;2023-04-06T03:17:12;28.42;;;11.40;;
40339;SDS011;26044;50.864;20.658;2023-04-06T03:19:39;31.98;;;12.13;;
40339;SDS011;26044;50.864;20.658;2023-04-06T03:22:06;30.52;;;11.88;;
40339;SDS011;26044;50.864;20.658;2023-04-06T03:24:34;28.20;;;11.05;;
40339;SDS011;26044;50.864;20.658;2023-04-06T03:27:01;31.70;;;12.10;;
40339;SDS011;26044;50.864;20.658;2023-04-06T03:29:28;30.38;;;12.43;;
40339;SDS011;26044;50.864;20.658;2023-04-06T03:31:56;30.60;;;11.30;;
40339;SDS011;26044;50.864;20.658;2023-04-06T03:34:23;35.17;;;13.60;;
40339;SDS011;26044;50.864;20.658;2023-04-06T03:36:50;38.90;;;13.98;;
40339;SDS011;26044;50.864;20.658;2023-04-06T03:39:34;31.23;;;13.88;;
40339;SDS011;26044;50.864;20.658;2023-04-06T03:42:02;31.92;;;13.75;;
40339;SDS011;26044;50.864;20.658;2023-04-06T03:44:29;32.08;;;12.02;;
40339;SDS011;26044;50.864;20.658;2023-04-06T03:46:57;32.42;;;11.63;;
40339;SDS011;26044;50.864;20.658;2023-04-06T03:49:25;31.52;;;11.60;;
40339;SDS011;26044;50.864;20.658;2023-04-06T03:51:52;32.42;;;11.07;;
40339;SDS011;26044;50.864;20.658;2023-04-06T03:54:19;32.80;;;11.43;;
40339;SDS011;26044;50.864;20.658;2023-04-06T03:56:49;35.05;;;11.70;;
40339;SDS011;26044;50.864;20.658;2023-04-06T03:59:16;32.55;;;12.80;;
40339;SDS011;26044;50.864;20.658;2023-04-06T04:01:43;40.13;;;13.75;;
40339;SDS011;26044;50.864;20.658;2023-04-06T04:04:11;40.55;;;15.10;;
40339;SDS011;26044;50.864;20.658;2023-04-06T04:06:38;44.05;;;16.02;;
40339;SDS011;26044;50.864;20.658;2023-04-06T04:09:05;44.00;;;16.42;;
40339;SDS011;26044;50.864;20.658;2023-04-06T04:11:32;41.65;;;14.95;;
40339;SDS011;26044;50.864;20.658;2023-04-06T04:13:59;37.20;;;14.88;;
40339;SDS011;26044;50.864;20.658;2023-04-06T04:16:27;33.75;;;12.48;;
40339;SDS011;26044;50.864;20.658;2023-04-06T04:18:54;39.88;;;13.43;;
40339;SDS011;26044;50.864;20.658;2023-04-06T04:21:21;35.05;;;13.63;;
40339;SDS011;26044;50.864;20.658;2023-04-06T04:23:48;36.47;;;13.85;;
40339;SDS011;26044;50.864;20.658;2023-04-06T04:26:16;35.42;;;14.38;;
40339;SDS011;26044;50.864;20.658;2023-04-06T04:28:43;35.83;;;14.68;;
40339;SDS011;26044;50.864;20.658;2023-04-06T04:31:10;37.03;;;13.80;;
40339;SDS011;26044;50.864;20.658;2023-04-06T04:33:37;31.90;;;13.18;;
40339;SDS011;26044;50.864;20.658;2023-04-06T04:36:05;39.10;;;11.82;;
40339;SDS011;26044;50.864;20.658;2023-04-06T04:38:32;34.85;;;12.27;;
40339;SDS011;26044;50.864;20.658;2023-04-06T04:40:59;33.35;;;13.85;;
40339;SDS011;26044;50.864;20.658;2023-04-06T04:43:26;30.60;;;11.93;;
40339;SDS011;26044;50.864;20.658;2023-04-06T04:45:56;32.90;;;12.67;;
40339;SDS011;26044;50.864;20.658;2023-04-06T04:48:25;32.58;;;11.95;;
40339;SDS011;26044;50.864;20.658;2023-04-06T04:50:52;27.60;;;11.40;;
40339;SDS011;26044;50.864;20.658;2023-04-06T04:53:21;33.30;;;11.77;;
40339;SDS011;26044;50.864;20.658;2023-04-06T04:55:50;35.85;;;12.35;;
40339;SDS011;26044;50.864;20.658;2023-04-06T04:58:17;31.02;;;11.68;;
40339;SDS011;26044;50.864;20.658;2023-04-06T05:00:46;33.58;;;12.43;;
40339;SDS011;26044;50.864;20.658;2023-04-06T05:03:14;39.35;;;12.48;;
40339;SDS011;26044;50.864;20.658;2023-04-06T05:05:45;32.05;;;12.27;;
40339;SDS011;26044;50.864;20.658;2023-04-06T05:08:12;36.28;;;12.57;;
40339;SDS011;26044;50.864;20.658;2023-04-06T05:10:39;33.75;;;13.23;;
40339;SDS011;26044;50.864;20.658;2023-04-06T05:13:06;34.30;;;13.93;;
40339;SDS011;26044;50.864;20.658;2023-04-06T05:15:33;35.53;;;13.10;;
40339;SDS011;26044;50.864;20.658;2023-04-06T05:18:01;34.42;;;13.23;;
40339;SDS011;26044;50.864;20.658;2023-04-06T05:20:28;29.42;;;11.57;;
40339;SDS011;26044;50.864;20.658;2023-04-06T05:22:55;33.67;;;14.43;;
40339;SDS011;26044;50.864;20.658;2023-04-06T05:25:23;33.42;;;13.15;;
40339;SDS011;26044;50.864;20.658;2023-04-06T05:27:50;35.40;;;13.10;;
40339;SDS011;26044;50.864;20.658;2023-04-06T05:30:17;32.80;;;12.52;;
40339;SDS011;26044;50.864;20.658;2023-04-06T05:32:44;31.55;;;13.20;;
40339;SDS011;26044;50.864;20.658;2023-04-06T05:35:11;31.33;;;11.55;;
40339;SDS011;26044;50.864;20.658;2023-04-06T05:37:39;34.33;;;12.57;;
40339;SDS011;26044;50.864;20.658;2023-04-06T05:40:06;30.67;;;13.02;;
40339;SDS011;26044;50.864;20.658;2023-04-06T05:42:40;33.22;;;13.02;;
40339;SDS011;26044;50.864;20.658;2023-04-06T05:45:09;34.08;;;12.73;;
40339;SDS011;26044;50.864;20.658;2023-04-06T05:47:45;34.38;;;12.88;;
40339;SDS011;26044;50.864;20.658;2023-04-06T05:50:13;33.33;;;12.23;;
40339;SDS011;26044;50.864;20.658;2023-04-06T05:52:40;33.45;;;12.80;;
40339;SDS011;26044;50.864;20.658;2023-04-06T05:55:09;35.22;;;12.55;;
40339;SDS011;26044;50.864;20.658;2023-04-06T05:57:37;31.92;;;12.25;;
40339;SDS011;26044;50.864;20.658;2023-04-06T06:00:05;34.80;;;13.20;;
40339;SDS011;26044;50.864;20.658;2023-04-06T06:02:36;33.40;;;12.00;;
40339;SDS011;26044;50.864;20.658;2023-04-06T06:05:03;32.00;;;11.88;;
40339;SDS011;26044;50.864;20.658;2023-04-06T06:07:31;31.90;;;11.18;;
40339;SDS011;26044;50.864;20.658;2023-04-06T06:09:58;31.63;;;12.23;;
40339;SDS011;26044;50.864;20.658;2023-04-06T06:12:25;31.10;;;10.95;;
40339;SDS011;26044;50.864;20.658;2023-04-06T06:14:53;31.17;;;11.02;;
40339;SDS011;26044;50.864;20.658;2023-04-06T06:17:20;31.10;;;11.38;;
40339;SDS011;26044;50.864;20.658;2023-04-06T06:19:48;29.67;;;10.10;;
40339;SDS011;26044;50.864;20.658;2023-04-06T06:22:15;28.63;;;11.02;;
40339;SDS011;26044;50.864;20.658;2023-04-06T06:24:42;29.60;;;10.20;;
40339;SDS011;26044;50.864;20.658;2023-04-06T06:27:09;27.25;;;10.65;;
40339;SDS011;26044;50.864;20.658;2023-04-06T06:29:37;33.05;;;11.50;;
40339;SDS011;26044;50.864;20.658;2023-04-06T06:32:04;27.23;;;9.82;;
40339;SDS011;26044;50.864;20.658;2023-04-06T06:34:32;25.05;;;9.13;;
40339;SDS011;26044;50.864;20.658;2023-04-06T06:36:59;29.40;;;10.65;;
40339;SDS011;26044;50.864;20.658;2023-04-06T06:39:26;24.83;;;9.32;;
40339;SDS011;26044;50.864;20.658;2023-04-06T06:41:54;27.88;;;9.98;;
40339;SDS011;26044;50.864;20.658;2023-04-06T06:44:21;25.35;;;9.68;;
40339;SDS011;26044;50.864;20.658;2023-04-06T06:46:48;28.27;;;8.88;;
40339;SDS011;26044;50.864;20.658;2023-04-06T06:49:15;25.85;;;9.05;;
40339;SDS011;26044;50.864;20.658;2023-04-06T06:51:42;24.90;;;8.27;;
40339;SDS011;26044;50.864;20.658;2023-04-06T06:54:10;24.73;;;7.75;;
40339;SDS011;26044;50.864;20.658;2023-04-06T06:56:37;27.42;;;9.30;;
40339;SDS011;26044;50.864;20.658;2023-04-06T06:59:05;23.13;;;8.43;;
40339;SDS011;26044;50.864;20.658;2023-04-06T07:01:32;23.65;;;7.95;;
40339;SDS011;26044;50.864;20.658;2023-04-06T07:04:01;25.02;;;8.25;;
40339;SDS011;26044;50.864;20.658;2023-04-06T07:06:28;25.63;;;9.85;;
40339;SDS011;26044;50.864;20.658;2023-04-06T07:08:54;25.08;;;8.80;;
40339;SDS011;26044;50.864;20.658;2023-04-06T07:11:21;25.17;;;9.20;;
40339;SDS011;26044;50.864;20.658;2023-04-06T07:13:48;26.73;;;9.40;;
40339;SDS011;26044;50.864;20.658;2023-04-06T07:16:15;29.25;;;9.77;;
40339;SDS011;26044;50.864;20.658;2023-04-06T07:18:42;26.02;;;9.27;;
40339;SDS011;26044;50.864;20.658;2023-04-06T07:21:09;30.73;;;10.88;;
40339;SDS011;26044;50.864;20.658;2023-04-06T07:23:36;28.55;;;9.65;;
40339;SDS011;26044;50.864;20.658;2023-04-06T07:26:03;24.15;;;9.48;;
40339;SDS011;26044;50.864;20.658;2023-04-06T07:28:30;25.75;;;9.18;;
40339;SDS011;26044;50.864;20.658;2023-04-06T07:30:56;26.70;;;9.70;;
40339;SDS011;26044;50.864;20.658;2023-04-06T07:33:23;31.63;;;10.40;;
40339;SDS011;26044;50.864;20.658;2023-04-06T07:35:50;24.08;;;7.80;;
40339;SDS011;26044;50.864;20.658;2023-04-06T07:38:18;22.15;;;8.45;;
40339;SDS011;26044;50.864;20.658;2023-04-06T07:40:45;26.73;;;8.75;;
40339;SDS011;26044;50.864;20.658;2023-04-06T07:43:12;27.33;;;8.15;;
40339;SDS011;26044;50.864;20.658;2023-04-06T07:45:39;27.42;;;9.20;;
40339;SDS011;26044;50.864;20.658;2023-04-06T07:48:06;26.13;;;7.80;;
40339;SDS011;26044;50.864;20.658;2023-04-06T07:50:33;23.42;;;8.35;;
40339;SDS011;26044;50.864;20.658;2023-04-06T07:52:59;25.23;;;9.45;;
40339;SDS011;26044;50.864;20.658;2023-04-06T07:55:27;27.45;;;8.77;;
40339;SDS011;26044;50.864;20.658;2023-04-06T07:57:53;21.42;;;7.28;;
40339;SDS011;26044;50.864;20.658;2023-04-06T08:00:20;20.95;;;7.95;;
40339;SDS011;26044;50.864;20.658;2023-04-06T08:02:48;22.92;;;7.75;;
40339;SDS011;26044;50.864;20.658;2023-04-06T08:05:15;26.05;;;8.27;;
40339;SDS011;26044;50.864;20.658;2023-04-06T08:07:42;23.70;;;7.28;;
40339;SDS011;26044;50.864;20.658;2023-04-06T08:10:09;20.83;;;6.82;;
40339;SDS011;26044;50.864;20.658;2023-04-06T08:12:36;18.05;;;6.80;;
40339;SDS011;26044;50.864;20.658;2023-04-06T08:15:03;19.02;;;6.15;;
40339;SDS011;26044;50.864;20.658;2023-04-06T08:17:31;22.95;;;5.78;;
40339;SDS011;26044;50.864;20.658;2023-04-06T08:20:00;19.67;;;5.45;;
40339;SDS011;26044;50.864;20.658;2023-04-06T08:22:26;19.20;;;6.13;;
40339;SDS011;26044;50.864;20.658;2023-04-06T08:24:53;20.48;;;6.18;;
40339;SDS011;26044;50.864;20.658;2023-04-06T08:27:20;16.25;;;5.50;;
40339;SDS011;26044;50.864;20.658;2023-04-06T08:29:47;19.13;;;5.93;;
40339;SDS011;26044;50.864;20.658;2023-04-06T08:32:16;15.15;;;4.82;;
40339;SDS011;26044;50.864;20.658;2023-04-06T08:34:43;18.13;;;5.45;;
40339;SDS011;26044;50.864;20.658;2023-04-06T08:37:10;19.02;;;6.43;;
40339;SDS011;26044;50.864;20.658;2023-04-06T08:39:37;19.20;;;6.65;;
40339;SDS011;26044;50.864;20.658;2023-04-06T08:42:04;15.15;;;5.40;;
40339;SDS011;26044;50.864;20.658;2023-04-06T08:44:36;14.45;;;5.22;;
40339;SDS011;26044;50.864;20.658;2023-04-06T08:47:04;16.85;;;5.18;;
40339;SDS011;26044;50.864;20.658;2023-04-06T08:49:31;16.45;;;5.65;;
40339;SDS011;26044;50.864;20.658;2023-04-06T08:52:00;17.52;;;6.43;;
40339;SDS011;26044;50.864;20.658;2023-04-06T08:54:27;25.35;;;7.40;;
40339;SDS011;26044;50.864;20.658;2023-04-06T08:56:54;20.65;;;6.32;;
40339;SDS011;26044;50.864;20.658;2023-04-06T08:59:23;15.57;;;5.25;;
40339;SDS011;26044;50.864;20.658;2023-04-06T09:01:51;18.58;;;6.32;;
40339;SDS011;26044;50.864;20.658;2023-04-06T09:04:19;22.02;;;6.15;;
40339;SDS011;26044;50.864;20.658;2023-04-06T09:06:46;20.42;;;6.78;;
40339;SDS011;26044;50.864;20.658;2023-04-06T09:09:13;18.20;;;5.45;;
40339;SDS011;26044;50.864;20.658;2023-04-06T09:11:43;19.98;;;6.72;;
40339;SDS011;26044;50.864;20.658;2023-04-06T09:14:15;22.30;;;7.18;;
40339;SDS011;26044;50.864;20.658;2023-04-06T09:16:43;23.05;;;6.35;;
40339;SDS011;26044;50.864;20.658;2023-04-06T09:19:14;21.95;;;6.85;;
40339;SDS011;26044;50.864;20.658;2023-04-06T09:21:41;25.55;;;7.20;;
40339;SDS011;26044;50.864;20.658;2023-04-06T09:24:08;22.90;;;7.22;;
40339;SDS011;26044;50.864;20.658;2023-04-06T09:26:45;28.50;;;7.95;;
40339;SDS011;26044;50.864;20.658;2023-04-06T09:29:23;28.42;;;8.55;;
40339;SDS011;26044;50.864;20.658;2023-04-06T09:31:52;20.20;;;6.90;;
40339;SDS011;26044;50.864;20.658;2023-04-06T09:34:31;20.15;;;6.15;;
40339;SDS011;26044;50.864;20.658;2023-04-06T09:36:58;21.92;;;7.50;;
40339;SDS011;26044;50.864;20.658;2023-04-06T09:39:25;19.52;;;6.80;;
40339;SDS011;26044;50.864;20.658;2023-04-06T09:41:53;21.00;;;7.63;;
40339;SDS011;26044;50.864;20.658;2023-04-06T09:44:20;22.90;;;7.57;;
40339;SDS011;26044;50.864;20.658;2023-04-06T09:46:47;21.30;;;7.30;;
40339;SDS011;26044;50.864;20.658;2023-04-06T09:49:27;22.40;;;6.70;;
40339;SDS011;26044;50.864;20.658;2023-04-06T09:52:04;23.40;;;7.35;;
40339;SDS011;26044;50.864;20.658;2023-04-06T09:54:34;21.30;;;7.32;;
40339;SDS011;26044;50.864;20.658;2023-04-06T09:57:11;22.75;;;7.63;;
40339;SDS011;26044;50.864;20.658;2023-04-06T10:00:07;20.73;;;7.03;;
40339;SDS011;26044;50.864;20.658;2023-04-06T10:05:27;21.33;;;8.13;;
40339;SDS011;26044;50.864;20.658;2023-04-06T10:08:06;22.08;;;7.93;;
40339;SDS011;26044;50.864;20.658;2023-04-06T10:10:35;19.77;;;7.68;;
40339;SDS011;26044;50.864;20.658;2023-04-06T10:13:02;21.25;;;7.43;;
40339;SDS011;26044;50.864;20.658;2023-04-06T10:15:30;23.33;;;8.35;;
40339;SDS011;26044;50.864;20.658;2023-04-06T10:17:58;20.58;;;8.27;;
40339;SDS011;26044;50.864;20.658;2023-04-06T10:25:53;21.42;;;8.55;;
40339;SDS011;26044;50.864;20.658;2023-04-06T10:28:21;21.90;;;8.93;;
40339;SDS011;26044;50.864;20.658;2023-04-06T10:30:58;23.48;;;9.05;;
40339;SDS011;26044;50.864;20.658;2023-04-06T10:33:31;25.73;;;10.57;;
40339;SDS011;26044;50.864;20.658;2023-04-06T10:36:09;27.85;;;11.63;;
40339;SDS011;26044;50.864;20.658;2023-04-06T10:38:39;27.48;;;12.30;;
40339;SDS011;26044;50.864;20.658;2023-04-06T10:41:11;28.17;;;10.90;;
40339;SDS011;26044;50.864;20.658;2023-04-06T10:43:39;29.30;;;11.10;;
40339;SDS011;26044;50.864;20.658;2023-04-06T10:46:07;22.13;;;9.00;;
40339;SDS011;26044;50.864;20.658;2023-04-06T10:48:41;24.17;;;10.10;;
40339;SDS011;26044;50.864;20.658;2023-04-06T10:51:11;27.27;;;12.15;;
40339;SDS011;26044;50.864;20.658;2023-04-06T10:53:43;30.25;;;12.98;;
40339;SDS011;26044;50.864;20.658;2023-04-06T10:56:12;34.38;;;13.32;;
40339;SDS011;26044;50.864;20.658;2023-04-06T10:58:51;30.60;;;11.85;;
40339;SDS011;26044;50.864;20.658;2023-04-06T11:01:19;30.55;;;13.18;;
40339;SDS011;26044;50.864;20.658;2023-04-06T11:03:48;27.48;;;11.57;;
40339;SDS011;26044;50.864;20.658;2023-04-06T11:06:29;24.13;;;9.70;;
40339;SDS011;26044;50.864;20.658;2023-04-06T11:08:57;24.48;;;9.52;;
40339;SDS011;26044;50.864;20.658;2023-04-06T11:11:25;26.65;;;9.40;;
40339;SDS011;26044;50.864;20.658;2023-04-06T11:16:31;26.70;;;11.98;;
40339;SDS011;26044;50.864;20.658;2023-04-06T11:19:00;24.50;;;9.88;;
40339;SDS011;26044;50.864;20.658;2023-04-06T11:26:49;27.95;;;9.60;;
40339;SDS011;26044;50.864;20.658;2023-04-06T11:29:25;25.90;;;10.45;;
40339;SDS011;26044;50.864;20.658;2023-04-06T11:31:58;21.75;;;9.20;;
40339;SDS011;26044;50.864;20.658;2023-04-06T11:34:27;23.05;;;9.52;;
40339;SDS011;26044;50.864;20.658;2023-04-06T11:36:56;21.60;;;8.02;;
40339;SDS011;26044;50.864;20.658;2023-04-06T11:39:28;20.58;;;7.75;;
40339;SDS011;26044;50.864;20.658;2023-04-06T11:42:01;23.50;;;8.77;;
40339;SDS011;26044;50.864;20.658;2023-04-06T11:44:35;23.13;;;11.30;;
40339;SDS011;26044;50.864;20.658;2023-04-06T11:47:08;29.92;;;12.18;;
40339;SDS011;26044;50.864;20.658;2023-04-06T11:49:37;25.42;;;12.40;;
40339;SDS011;26044;50.864;20.658;2023-04-06T11:52:14;28.23;;;12.93;;
40339;SDS011;26044;50.864;20.658;2023-04-06T11:54:52;25.58;;;10.23;;
40339;SDS011;26044;50.864;20.658;2023-04-06T11:57:21;26.27;;;10.32;;
40339;SDS011;26044;50.864;20.658;2023-04-06T11:59:52;27.42;;;11.13;;
40339;SDS011;26044;50.864;20.658;2023-04-06T12:02:19;24.77;;;9.80;;
40339;SDS011;26044;50.864;20.658;2023-04-06T12:04:46;26.77;;;10.82;;
40339;SDS011;26044;50.864;20.658;2023-04-06T12:07:13;23.67;;;9.35;;
40339;SDS011;26044;50.864;20.658;2023-04-06T12:09:40;23.02;;;9.15;;
40339;SDS011;26044;50.864;20.658;2023-04-06T12:12:07;27.02;;;11.07;;
40339;SDS011;26044;50.864;20.658;2023-04-06T12:14:34;22.98;;;9.93;;
40339;SDS011;26044;50.864;20.658;2023-04-06T12:17:00;28.15;;;11.10;;
40339;SDS011;26044;50.864;20.658;2023-04-06T12:19:27;24.33;;;10.13;;
40339;SDS011;26044;50.864;20.658;2023-04-06T12:21:56;22.83;;;10.13;;
40339;SDS011;26044;50.864;20.658;2023-04-06T12:24:23;25.75;;;11.05;;
40339;SDS011;26044;50.864;20.658;2023-04-06T12:26:50;28.80;;;12.90;;
40339;SDS011;26044;50.864;20.658;2023-04-06T12:29:31;25.13;;;10.48;;
40339;SDS011;26044;50.864;20.658;2023-04-06T12:31:59;28.17;;;13.60;;
40339;SDS011;26044;50.864;20.658;2023-04-06T12:34:27;29.88;;;12.02;;
40339;SDS011;26044;50.864;20.658;2023-04-06T12:36:54;29.58;;;13.13;;
40339;SDS011;26044;50.864;20.658;2023-04-06T12:39:22;34.70;;;14.63;;
40339;SDS011;26044;50.864;20.658;2023-04-06T12:41:49;23.75;;;10.10;;
40339;SDS011;26044;50.864;20.658;2023-04-06T12:44:16;26.25;;;11.32;;
40339;SDS011;26044;50.864;20.658;2023-04-06T12:46:43;25.58;;;9.48;;
40339;SDS011;26044;50.864;20.658;2023-04-06T12:49:10;19.65;;;8.73;;
40339;SDS011;26044;50.864;20.658;2023-04-06T12:51:37;26.35;;;10.90;;
40339;SDS011;26044;50.864;20.658;2023-04-06T12:54:04;25.38;;;10.60;;
40339;SDS011;26044;50.864;20.658;2023-04-06T12:56:32;22.35;;;10.35;;
40339;SDS011;26044;50.864;20.658;2023-04-06T12:58:58;25.58;;;11.15;;
40339;SDS011;26044;50.864;20.658;2023-04-06T13:01:25;21.42;;;8.75;;
40339;SDS011;26044;50.864;20.658;2023-04-06T13:03:55;21.80;;;9.43;;
40339;SDS011;26044;50.864;20.658;2023-04-06T13:06:22;26.02;;;9.63;;
40339;SDS011;26044;50.864;20.658;2023-04-06T13:11:21;23.63;;;9.45;;
40339;SDS011;26044;50.864;20.658;2023-04-06T13:13:53;20.35;;;8.90;;
40339;SDS011;26044;50.864;20.658;2023-04-06T13:16:20;24.40;;;9.27;;
40339;SDS011;26044;50.864;20.658;2023-04-06T13:18:47;19.92;;;8.77;;
40339;SDS011;26044;50.864;20.658;2023-04-06T13:21:14;21.95;;;9.50;;
40339;SDS011;26044;50.864;20.658;2023-04-06T13:23:46;22.42;;;8.85;;
40339;SDS011;26044;50.864;20.658;2023-04-06T13:26:13;18.88;;;7.57;;
40339;SDS011;26044;50.864;20.658;2023-04-06T13:28:41;21.45;;;8.85;;
40339;SDS011;26044;50.864;20.658;2023-04-06T13:31:08;22.13;;;9.15;;
40339;SDS011;26044;50.864;20.658;2023-04-06T13:33:36;21.02;;;8.45;;
40339;SDS011;26044;50.864;20.658;2023-04-06T13:36:03;21.65;;;8.45;;
40339;SDS011;26044;50.864;20.658;2023-04-06T13:38:32;25.60;;;11.40;;
40339;SDS011;26044;50.864;20.658;2023-04-06T13:40:59;21.75;;;10.80;;
40339;SDS011;26044;50.864;20.658;2023-04-06T13:43:26;22.45;;;10.18;;
40339;SDS011;26044;50.864;20.658;2023-04-06T13:45:54;28.13;;;13.98;;
40339;SDS011;26044;50.864;20.658;2023-04-06T13:48:22;34.92;;;18.40;;
40339;SDS011;26044;50.864;20.658;2023-04-06T13:50:49;49.55;;;28.92;;
40339;SDS011;26044;50.864;20.658;2023-04-06T13:53:16;75.78;;;47.22;;
40339;SDS011;26044;50.864;20.658;2023-04-06T13:55:43;54.35;;;37.20;;
40339;SDS011;26044;50.864;20.658;2023-04-06T13:58:17;42.72;;;26.25;;
40339;SDS011;26044;50.864;20.658;2023-04-06T14:00:44;42.97;;;24.27;;
40339;SDS011;26044;50.864;20.658;2023-04-06T14:03:11;32.95;;;19.52;;
40339;SDS011;26044;50.864;20.658;2023-04-06T14:05:38;41.08;;;25.98;;
40339;SDS011;26044;50.864;20.658;2023-04-06T14:08:05;25.73;;;11.95;;
40339;SDS011;26044;50.864;20.658;2023-04-06T14:10:36;21.35;;;10.38;;
40339;SDS011;26044;50.864;20.658;2023-04-06T14:13:03;23.70;;;9.25;;
40339;SDS011;26044;50.864;20.658;2023-04-06T14:15:30;21.60;;;9.43;;
40339;SDS011;26044;50.864;20.658;2023-04-06T14:17:57;22.48;;;9.32;;
40339;SDS011;26044;50.864;20.658;2023-04-06T14:20:23;27.63;;;13.30;;
40339;SDS011;26044;50.864;20.658;2023-04-06T14:22:50;22.42;;;10.35;;
40339;SDS011;26044;50.864;20.658;2023-04-06T14:25:18;22.27;;;9.85;;
40339;SDS011;26044;50.864;20.658;2023-04-06T14:27:46;20.02;;;8.65;;
40339;SDS011;26044;50.864;20.658;2023-04-06T14:30:13;24.23;;;11.00;;
40339;SDS011;26044;50.864;20.658;2023-04-06T14:32:40;23.63;;;9.75;;
40339;SDS011;26044;50.864;20.658;2023-04-06T14:35:08;17.95;;;7.57;;
40339;SDS011;26044;50.864;20.658;2023-04-06T14:37:36;24.42;;;9.73;;